sensor_id;sensor_type;location;lat;lon;timestamp;P1;durP1;ratioP1;P2;durP2;ratioP2
13991;SDS011;7070;53.586;9.692;2022-07-18T00:00:31;0.40;;;0.40;;
13991;SDS011;7070;53.586;9.692;2022-07-18T00:02:58;0.50;;;0.50;;
13991;SDS011;7070;53.586;9.692;2022-07-18T00:05:25;0.40;;;0.40;;
13991;SDS011;7070;53.586;9.692;2022-07-18T00:07:52;0.40;;;0.40;;
13991;SDS011;7070;53.586;9.692;2022-07-18T00:10:19;0.40;;;0.40;;
13991;SDS011;7070;53.586;9.692;2022-07-18T00:12:45;0.40;;;0.40;;
13991;SDS011;7070;53.586;9.692;2022-07-18T00:15:12;0.30;;;0.30;;
13991;SDS011;7070;53.586;9.692;2022-07-18T00:17:41;0.40;;;0.40;;
13991;SDS011;7070;53.586;9.692;2022-07-18T00:20:09;0.30;;;0.30;;
13991;SDS011;7070;53.586;9.692;2022-07-18T00:22:37;0.40;;;0.40;;
13991;SDS011;7070;53.586;9.692;2022-07-18T00:25:04;0.40;;;0.40;;
13991;SDS011;7070;53.586;9.692;2022-07-18T00:27:32;0.40;;;0.40;;
13991;SDS011;7070;53.586;9.692;2022-07-18T00:29:59;0.40;;;0.40;;
13991;SDS011;7070;53.586;9.692;2022-07-18T00:32:25;0.40;;;0.40;;
13991;SDS011;7070;53.586;9.692;2022-07-18T00:34:54;0.50;;;0.50;;
13991;SDS011;7070;53.586;9.692;2022-07-18T00:37:21;0.40;;;0.40;;
13991;SDS011;7070;53.586;9.692;2022-07-18T00:39:48;0.50;;;0.50;;
13991;SDS011;7070;53.586;9.692;2022-07-18T00:42:14;0.50;;;0.50;;
13991;SDS011;7070;53.586;9.692;2022-07-18T00:44:41;0.40;;;0.40;;
13991;SDS011;7070;53.586;9.692;2022-07-18T00:47:08;0.40;;;0.40;;
13991;SDS011;7070;53.586;9.692;2022-07-18T00:49:35;0.40;;;0.40;;
13991;SDS011;7070;53.586;9.692;2022-07-18T00:52:04;0.40;;;0.40;;
13991;SDS011;7070;53.586;9.692;2022-07-18T00:54:31;0.40;;;0.40;;
13991;SDS011;7070;53.586;9.692;2022-07-18T00:56:58;0.50;;;0.50;;
13991;SDS011;7070;53.586;9.692;2022-07-18T00:59:25;0.50;;;0.50;;
13991;SDS011;7070;53.586;9.692;2022-07-18T01:02:12;0.40;;;0.40;;
13991;SDS011;7070;53.586;9.692;2022-07-18T01:04:38;0.50;;;0.50;;
13991;SDS011;7070;53.586;9.692;2022-07-18T01:07:07;0.50;;;0.50;;
13991;SDS011;7070;53.586;9.692;2022-07-18T01:09:34;0.40;;;0.40;;
13991;SDS011;7070;53.586;9.692;2022-07-18T01:12:02;0.40;;;0.40;;
13991;SDS011;7070;53.586;9.692;2022-07-18T01:14:29;0.40;;;0.40;;
13991;SDS011;7070;53.586;9.692;2022-07-18T01:16:57;0.50;;;0.50;;
13991;SDS011;7070;53.586;9.692;2022-07-18T01:19:24;0.50;;;0.50;;
13991;SDS011;7070;53.586;9.692;2022-07-18T01:21:52;0.50;;;0.50;;
13991;SDS011;7070;53.586;9.692;2022-07-18T01:24:19;0.40;;;0.40;;
13991;SDS011;7070;53.586;9.692;2022-07-18T01:26:46;0.50;;;0.50;;
13991;SDS011;7070;53.586;9.692;2022-07-18T01:29:13;0.40;;;0.40;;
13991;SDS011;7070;53.586;9.692;2022-07-18T01:31:39;0.40;;;0.40;;
13991;SDS011;7070;53.586;9.692;2022-07-18T01:34:06;0.40;;;0.40;;
13991;SDS011;7070;53.586;9.692;2022-07-18T01:36:33;0.40;;;0.40;;
13991;SDS011;7070;53.586;9.692;2022-07-18T01:39:02;0.40;;;0.40;;
13991;SDS011;7070;53.586;9.692;2022-07-18T01:41:28;0.43;;;0.43;;
13991;SDS011;7070;53.586;9.692;2022-07-18T01:43:56;0.50;;;0.50;;
13991;SDS011;7070;53.586;9.692;2022-07-18T01:46:22;0.40;;;0.40;;
13991;SDS011;7070;53.586;9.692;2022-07-18T01:48:49;0.40;;;0.40;;
13991;SDS011;7070;53.586;9.692;2022-07-18T01:51:16;0.40;;;0.40;;
13991;SDS011;7070;53.586;9.692;2022-07-18T01:53:53;0.40;;;0.40;;
13991;SDS011;7070;53.586;9.692;2022-07-18T01:56:24;0.40;;;0.40;;
13991;SDS011;7070;53.586;9.692;2022-07-18T01:58:51;0.43;;;0.43;;
13991;SDS011;7070;53.586;9.692;2022-07-18T02:01:18;0.40;;;0.40;;
13991;SDS011;7070;53.586;9.692;2022-07-18T02:03:45;0.43;;;0.43;;
13991;SDS011;7070;53.586;9.692;2022-07-18T02:06:12;0.40;;;0.40;;
13991;SDS011;7070;53.586;9.692;2022-07-18T02:08:38;0.50;;;0.50;;
13991;SDS011;7070;53.586;9.692;2022-07-18T02:11:05;0.40;;;0.40;;
13991;SDS011;7070;53.586;9.692;2022-07-18T02:13:33;0.40;;;0.40;;
13991;SDS011;7070;53.586;9.692;2022-07-18T02:16:00;0.50;;;0.50;;
13991;SDS011;7070;53.586;9.692;2022-07-18T02:18:27;0.40;;;0.40;;
13991;SDS011;7070;53.586;9.692;2022-07-18T02:20:57;0.40;;;0.40;;
13991;SDS011;7070;53.586;9.692;2022-07-18T02:23:24;0.40;;;0.40;;
13991;SDS011;7070;53.586;9.692;2022-07-18T02:25:51;0.30;;;0.30;;
13991;SDS011;7070;53.586;9.692;2022-07-18T02:28:18;0.50;;;0.50;;
13991;SDS011;7070;53.586;9.692;2022-07-18T02:30:47;0.40;;;0.40;;
13991;SDS011;7070;53.586;9.692;2022-07-18T02:33:14;0.40;;;0.40;;
13991;SDS011;7070;53.586;9.692;2022-07-18T02:35:41;0.40;;;0.40;;
13991;SDS011;7070;53.586;9.692;2022-07-18T02:38:08;0.40;;;0.40;;
13991;SDS011;7070;53.586;9.692;2022-07-18T02:40:35;0.40;;;0.40;;
13991;SDS011;7070;53.586;9.692;2022-07-18T02:43:02;0.40;;;0.40;;
13991;SDS011;7070;53.586;9.692;2022-07-18T02:45:29;0.40;;;0.40;;
13991;SDS011;7070;53.586;9.692;2022-07-18T02:47:58;0.50;;;0.50;;
13991;SDS011;7070;53.586;9.692;2022-07-18T02:50:25;0.40;;;0.40;;
13991;SDS011;7070;53.586;9.692;2022-07-18T02:52:51;0.40;;;0.40;;
13991;SDS011;7070;53.586;9.692;2022-07-18T02:55:18;0.50;;;0.50;;
13991;SDS011;7070;53.586;9.692;2022-07-18T02:57:46;0.40;;;0.40;;
13991;SDS011;7070;53.586;9.692;2022-07-18T03:00:13;0.50;;;0.50;;
13991;SDS011;7070;53.586;9.692;2022-07-18T03:02:41;0.37;;;0.37;;
13991;SDS011;7070;53.586;9.692;2022-07-18T03:05:09;0.40;;;0.40;;
13991;SDS011;7070;53.586;9.692;2022-07-18T03:07:37;0.40;;;0.40;;
13991;SDS011;7070;53.586;9.692;2022-07-18T03:10:04;0.40;;;0.40;;
13991;SDS011;7070;53.586;9.692;2022-07-18T03:12:32;0.40;;;0.40;;
13991;SDS011;7070;53.586;9.692;2022-07-18T03:14:59;0.50;;;0.50;;
13991;SDS011;7070;53.586;9.692;2022-07-18T03:17:26;0.40;;;0.40;;
13991;SDS011;7070;53.586;9.692;2022-07-18T03:19:53;0.43;;;0.43;;
13991;SDS011;7070;53.586;9.692;2022-07-18T03:22:21;0.40;;;0.40;;
13991;SDS011;7070;53.586;9.692;2022-07-18T03:24:48;0.40;;;0.40;;
13991;SDS011;7070;53.586;9.692;2022-07-18T03:27:15;0.40;;;0.40;;
13991;SDS011;7070;53.586;9.692;2022-07-18T03:29:42;0.50;;;0.50;;
13991;SDS011;7070;53.586;9.692;2022-07-18T03:32:08;0.40;;;0.40;;
13991;SDS011;7070;53.586;9.692;2022-07-18T03:34:35;0.50;;;0.50;;
13991;SDS011;7070;53.586;9.692;2022-07-18T03:37:11;0.40;;;0.40;;
13991;SDS011;7070;53.586;9.692;2022-07-18T03:39:42;0.40;;;0.40;;
13991;SDS011;7070;53.586;9.692;2022-07-18T03:42:08;0.50;;;0.50;;
13991;SDS011;7070;53.586;9.692;2022-07-18T03:44:35;0.50;;;0.50;;
13991;SDS011;7070;53.586;9.692;2022-07-18T03:47:02;0.40;;;0.40;;
13991;SDS011;7070;53.586;9.692;2022-07-18T03:49:29;0.40;;;0.40;;
13991;SDS011;7070;53.586;9.692;2022-07-18T03:51:56;0.40;;;0.40;;
13991;SDS011;7070;53.586;9.692;2022-07-18T03:54:23;0.47;;;0.47;;
13991;SDS011;7070;53.586;9.692;2022-07-18T03:56:51;0.40;;;0.40;;
13991;SDS011;7070;53.586;9.692;2022-07-18T03:59:18;0.40;;;0.40;;
13991;SDS011;7070;53.586;9.692;2022-07-18T04:01:44;0.40;;;0.40;;
13991;SDS011;7070;53.586;9.692;2022-07-18T04:04:11;0.40;;;0.40;;
13991;SDS011;7070;53.586;9.692;2022-07-18T04:06:38;0.50;;;0.50;;
13991;SDS011;7070;53.586;9.692;2022-07-18T04:09:05;0.40;;;0.40;;
13991;SDS011;7070;53.586;9.692;2022-07-18T04:11:32;0.40;;;0.40;;
13991;SDS011;7070;53.586;9.692;2022-07-18T04:14:00;0.50;;;0.50;;
13991;SDS011;7070;53.586;9.692;2022-07-18T04:16:30;0.50;;;0.50;;
13991;SDS011;7070;53.586;9.692;2022-07-18T04:18:57;0.43;;;0.43;;
13991;SDS011;7070;53.586;9.692;2022-07-18T04:21:24;0.40;;;0.40;;
13991;SDS011;7070;53.586;9.692;2022-07-18T04:23:51;0.43;;;0.43;;
13991;SDS011;7070;53.586;9.692;2022-07-18T04:26:18;0.40;;;0.40;;
13991;SDS011;7070;53.586;9.692;2022-07-18T04:28:45;0.40;;;0.40;;
13991;SDS011;7070;53.586;9.692;2022-07-18T04:31:13;0.50;;;0.50;;
13991;SDS011;7070;53.586;9.692;2022-07-18T04:33:40;0.40;;;0.40;;
13991;SDS011;7070;53.586;9.692;2022-07-18T04:36:06;0.40;;;0.40;;
13991;SDS011;7070;53.586;9.692;2022-07-18T04:38:33;0.50;;;0.50;;
13991;SDS011;7070;53.586;9.692;2022-07-18T04:41:02;0.40;;;0.40;;
13991;SDS011;7070;53.586;9.692;2022-07-18T04:43:29;0.40;;;0.40;;
13991;SDS011;7070;53.586;9.692;2022-07-18T04:45:56;0.47;;;0.47;;
13991;SDS011;7070;53.586;9.692;2022-07-18T04:48:24;0.40;;;0.40;;
13991;SDS011;7070;53.586;9.692;2022-07-18T04:50:51;0.40;;;0.40;;
13991;SDS011;7070;53.586;9.692;2022-07-18T04:53:18;0.40;;;0.40;;
13991;SDS011;7070;53.586;9.692;2022-07-18T04:55:45;0.37;;;0.37;;
13991;SDS011;7070;53.586;9.692;2022-07-18T04:58:11;0.43;;;0.43;;
13991;SDS011;7070;53.586;9.692;2022-07-18T05:00:38;0.40;;;0.40;;
13991;SDS011;7070;53.586;9.692;2022-07-18T05:03:05;0.40;;;0.40;;
13991;SDS011;7070;53.586;9.692;2022-07-18T05:05:33;0.40;;;0.40;;
13991;SDS011;7070;53.586;9.692;2022-07-18T05:08:00;0.40;;;0.40;;
13991;SDS011;7070;53.586;9.692;2022-07-18T05:10:27;0.33;;;0.33;;
13991;SDS011;7070;53.586;9.692;2022-07-18T05:12:54;0.40;;;0.40;;
13991;SDS011;7070;53.586;9.692;2022-07-18T05:15:22;0.40;;;0.40;;
13991;SDS011;7070;53.586;9.692;2022-07-18T05:17:50;0.40;;;0.40;;
13991;SDS011;7070;53.586;9.692;2022-07-18T05:20:18;0.40;;;0.40;;
13991;SDS011;7070;53.586;9.692;2022-07-18T05:22:49;0.40;;;0.40;;
13991;SDS011;7070;53.586;9.692;2022-07-18T05:25:17;0.40;;;0.40;;
13991;SDS011;7070;53.586;9.692;2022-07-18T05:27:44;0.50;;;0.50;;
13991;SDS011;7070;53.586;9.692;2022-07-18T05:30:12;0.30;;;0.30;;
13991;SDS011;7070;53.586;9.692;2022-07-18T05:32:40;0.40;;;0.40;;
13991;SDS011;7070;53.586;9.692;2022-07-18T05:35:08;0.40;;;0.40;;
13991;SDS011;7070;53.586;9.692;2022-07-18T05:37:36;0.30;;;0.30;;
13991;SDS011;7070;53.586;9.692;2022-07-18T05:40:05;0.40;;;0.40;;
13991;SDS011;7070;53.586;9.692;2022-07-18T05:42:34;0.50;;;0.50;;
13991;SDS011;7070;53.586;9.692;2022-07-18T05:45:02;0.40;;;0.40;;
13991;SDS011;7070;53.586;9.692;2022-07-18T05:47:30;0.40;;;0.40;;
13991;SDS011;7070;53.586;9.692;2022-07-18T05:49:57;0.30;;;0.30;;
13991;SDS011;7070;53.586;9.692;2022-07-18T05:52:23;0.30;;;0.30;;
13991;SDS011;7070;53.586;9.692;2022-07-18T05:54:50;0.50;;;0.50;;
13991;SDS011;7070;53.586;9.692;2022-07-18T05:57:19;0.40;;;0.40;;
13991;SDS011;7070;53.586;9.692;2022-07-18T05:59:46;0.30;;;0.30;;
13991;SDS011;7070;53.586;9.692;2022-07-18T06:02:13;0.40;;;0.40;;
13991;SDS011;7070;53.586;9.692;2022-07-18T06:04:39;0.37;;;0.37;;
13991;SDS011;7070;53.586;9.692;2022-07-18T06:07:06;0.30;;;0.30;;
13991;SDS011;7070;53.586;9.692;2022-07-18T06:09:33;0.33;;;0.33;;
13991;SDS011;7070;53.586;9.692;2022-07-18T06:12:02;0.30;;;0.30;;
13991;SDS011;7070;53.586;9.692;2022-07-18T06:14:31;0.30;;;0.30;;
13991;SDS011;7070;53.586;9.692;2022-07-18T06:16:58;0.40;;;0.40;;
13991;SDS011;7070;53.586;9.692;2022-07-18T06:19:25;0.30;;;0.30;;
13991;SDS011;7070;53.586;9.692;2022-07-18T06:21:51;0.30;;;0.30;;
13991;SDS011;7070;53.586;9.692;2022-07-18T06:24:18;0.30;;;0.30;;
13991;SDS011;7070;53.586;9.692;2022-07-18T06:26:45;0.30;;;0.30;;
13991;SDS011;7070;53.586;9.692;2022-07-18T06:29:12;0.30;;;0.30;;
13991;SDS011;7070;53.586;9.692;2022-07-18T06:31:40;0.30;;;0.30;;
13991;SDS011;7070;53.586;9.692;2022-07-18T06:34:07;0.30;;;0.30;;
13991;SDS011;7070;53.586;9.692;2022-07-18T06:36:34;0.30;;;0.30;;
13991;SDS011;7070;53.586;9.692;2022-07-18T06:39:01;0.30;;;0.30;;
13991;SDS011;7070;53.586;9.692;2022-07-18T06:41:33;0.30;;;0.30;;
13991;SDS011;7070;53.586;9.692;2022-07-18T06:44:00;0.30;;;0.30;;
13991;SDS011;7070;53.586;9.692;2022-07-18T06:46:30;0.20;;;0.20;;
13991;SDS011;7070;53.586;9.692;2022-07-18T06:48:58;0.30;;;0.30;;
13991;SDS011;7070;53.586;9.692;2022-07-18T06:51:25;0.30;;;0.30;;
13991;SDS011;7070;53.586;9.692;2022-07-18T06:53:52;0.30;;;0.30;;
13991;SDS011;7070;53.586;9.692;2022-07-18T06:56:19;0.20;;;0.20;;
13991;SDS011;7070;53.586;9.692;2022-07-18T06:58:46;0.30;;;0.30;;
13991;SDS011;7070;53.586;9.692;2022-07-18T07:01:15;0.30;;;0.30;;
13991;SDS011;7070;53.586;9.692;2022-07-18T07:03:42;0.40;;;0.40;;
13991;SDS011;7070;53.586;9.692;2022-07-18T07:06:11;0.30;;;0.30;;
13991;SDS011;7070;53.586;9.692;2022-07-18T07:08:40;0.30;;;0.30;;
13991;SDS011;7070;53.586;9.692;2022-07-18T07:11:07;0.20;;;0.20;;
13991;SDS011;7070;53.586;9.692;2022-07-18T07:13:34;0.20;;;0.20;;
13991;SDS011;7070;53.586;9.692;2022-07-18T07:16:01;0.30;;;0.30;;
13991;SDS011;7070;53.586;9.692;2022-07-18T07:18:28;0.20;;;0.20;;
13991;SDS011;7070;53.586;9.692;2022-07-18T07:20:55;0.30;;;0.30;;
13991;SDS011;7070;53.586;9.692;2022-07-18T07:23:23;0.30;;;0.30;;
13991;SDS011;7070;53.586;9.692;2022-07-18T07:25:50;0.30;;;0.30;;
13991;SDS011;7070;53.586;9.692;2022-07-18T07:28:17;0.30;;;0.30;;
13991;SDS011;7070;53.586;9.692;2022-07-18T07:30:44;0.30;;;0.30;;
13991;SDS011;7070;53.586;9.692;2022-07-18T07:33:11;0.20;;;0.20;;
13991;SDS011;7070;53.586;9.692;2022-07-18T07:35:38;0.30;;;0.30;;
13991;SDS011;7070;53.586;9.692;2022-07-18T07:38:05;0.30;;;0.30;;
13991;SDS011;7070;53.586;9.692;2022-07-18T07:40:33;0.10;;;0.10;;
13991;SDS011;7070;53.586;9.692;2022-07-18T07:43:04;0.20;;;0.20;;
13991;SDS011;7070;53.586;9.692;2022-07-18T07:45:32;0.30;;;0.30;;
13991;SDS011;7070;53.586;9.692;2022-07-18T07:47:59;0.20;;;0.20;;
13991;SDS011;7070;53.586;9.692;2022-07-18T07:50:26;0.20;;;0.20;;
13991;SDS011;7070;53.586;9.692;2022-07-18T07:52:54;0.20;;;0.20;;
13991;SDS011;7070;53.586;9.692;2022-07-18T07:55:21;0.30;;;0.30;;
13991;SDS011;7070;53.586;9.692;2022-07-18T07:57:49;0.30;;;0.30;;
13991;SDS011;7070;53.586;9.692;2022-07-18T08:00:16;0.30;;;0.30;;
13991;SDS011;7070;53.586;9.692;2022-07-18T08:02:51;0.23;;;0.23;;
13991;SDS011;7070;53.586;9.692;2022-07-18T08:05:19;0.30;;;0.30;;
13991;SDS011;7070;53.586;9.692;2022-07-18T08:07:46;0.30;;;0.30;;
13991;SDS011;7070;53.586;9.692;2022-07-18T08:10:13;0.30;;;0.30;;
13991;SDS011;7070;53.586;9.692;2022-07-18T08:12:40;0.30;;;0.30;;
13991;SDS011;7070;53.586;9.692;2022-07-18T08:15:09;0.30;;;0.30;;
13991;SDS011;7070;53.586;9.692;2022-07-18T08:17:37;0.20;;;0.20;;
13991;SDS011;7070;53.586;9.692;2022-07-18T08:20:04;0.30;;;0.30;;
13991;SDS011;7070;53.586;9.692;2022-07-18T08:22:32;0.20;;;0.20;;
13991;SDS011;7070;53.586;9.692;2022-07-18T08:24:59;0.20;;;0.20;;
13991;SDS011;7070;53.586;9.692;2022-07-18T08:27:27;0.23;;;0.23;;
13991;SDS011;7070;53.586;9.692;2022-07-18T08:29:54;0.30;;;0.30;;
13991;SDS011;7070;53.586;9.692;2022-07-18T08:32:22;0.30;;;0.30;;
13991;SDS011;7070;53.586;9.692;2022-07-18T08:34:49;0.20;;;0.20;;
13991;SDS011;7070;53.586;9.692;2022-07-18T08:37:18;0.30;;;0.30;;
13991;SDS011;7070;53.586;9.692;2022-07-18T08:39:44;0.23;;;0.23;;
13991;SDS011;7070;53.586;9.692;2022-07-18T08:42:11;0.30;;;0.30;;
13991;SDS011;7070;53.586;9.692;2022-07-18T08:44:39;0.20;;;0.20;;
13991;SDS011;7070;53.586;9.692;2022-07-18T08:47:07;0.30;;;0.30;;
13991;SDS011;7070;53.586;9.692;2022-07-18T08:49:36;0.28;;;0.28;;
13991;SDS011;7070;53.586;9.692;2022-07-18T08:52:04;0.20;;;0.20;;
13991;SDS011;7070;53.586;9.692;2022-07-18T08:54:31;0.20;;;0.20;;
13991;SDS011;7070;53.586;9.692;2022-07-18T08:56:58;0.30;;;0.30;;
13991;SDS011;7070;53.586;9.692;2022-07-18T08:59:25;0.20;;;0.20;;
13991;SDS011;7070;53.586;9.692;2022-07-18T09:01:52;0.25;;;0.25;;
13991;SDS011;7070;53.586;9.692;2022-07-18T09:04:31;0.20;;;0.20;;
13991;SDS011;7070;53.586;9.692;2022-07-18T09:06:59;0.20;;;0.20;;
13991;SDS011;7070;53.586;9.692;2022-07-18T09:09:28;0.20;;;0.20;;
13991;SDS011;7070;53.586;9.692;2022-07-18T09:11:58;0.22;;;0.22;;
13991;SDS011;7070;53.586;9.692;2022-07-18T09:14:29;0.20;;;0.20;;
13991;SDS011;7070;53.586;9.692;2022-07-18T09:17:01;0.30;;;0.30;;
13991;SDS011;7070;53.586;9.692;2022-07-18T09:19:30;0.20;;;0.20;;
13991;SDS011;7070;53.586;9.692;2022-07-18T09:24:51;0.20;;;0.20;;
13991;SDS011;7070;53.586;9.692;2022-07-18T09:27:26;0.30;;;0.30;;
13991;SDS011;7070;53.586;9.692;2022-07-18T09:30:06;0.20;;;0.20;;
13991;SDS011;7070;53.586;9.692;2022-07-18T09:32:48;0.30;;;0.30;;
13991;SDS011;7070;53.586;9.692;2022-07-18T09:35:17;0.20;;;0.20;;
13991;SDS011;7070;53.586;9.692;2022-07-18T09:37:54;0.30;;;0.30;;
13991;SDS011;7070;53.586;9.692;2022-07-18T09:40:23;0.20;;;0.20;;
13991;SDS011;7070;53.586;9.692;2022-07-18T09:42:52;0.30;;;0.30;;
13991;SDS011;7070;53.586;9.692;2022-07-18T09:45:23;0.20;;;0.20;;
13991;SDS011;7070;53.586;9.692;2022-07-18T09:47:52;0.30;;;0.30;;
13991;SDS011;7070;53.586;9.692;2022-07-18T09:50:21;0.30;;;0.30;;
13991;SDS011;7070;53.586;9.692;2022-07-18T09:52:56;0.30;;;0.30;;
13991;SDS011;7070;53.586;9.692;2022-07-18T09:55:24;0.25;;;0.25;;
13991;SDS011;7070;53.586;9.692;2022-07-18T09:57:58;0.20;;;0.20;;
13991;SDS011;7070;53.586;9.692;2022-07-18T10:00:28;0.25;;;0.25;;
13991;SDS011;7070;53.586;9.692;2022-07-18T10:02:56;0.20;;;0.20;;
13991;SDS011;7070;53.586;9.692;2022-07-18T10:05:26;0.30;;;0.30;;
13991;SDS011;7070;53.586;9.692;2022-07-18T10:07:54;0.20;;;0.20;;
13991;SDS011;7070;53.586;9.692;2022-07-18T10:10:23;0.20;;;0.20;;
13991;SDS011;7070;53.586;9.692;2022-07-18T10:12:51;0.22;;;0.22;;
13991;SDS011;7070;53.586;9.692;2022-07-18T10:15:20;0.20;;;0.20;;
13991;SDS011;7070;53.586;9.692;2022-07-18T10:17:48;0.30;;;0.30;;
13991;SDS011;7070;53.586;9.692;2022-07-18T10:20:15;0.20;;;0.20;;
13991;SDS011;7070;53.586;9.692;2022-07-18T10:22:43;0.20;;;0.20;;
13991;SDS011;7070;53.586;9.692;2022-07-18T10:25:13;0.30;;;0.30;;
13991;SDS011;7070;53.586;9.692;2022-07-18T10:27:50;0.20;;;0.20;;
13991;SDS011;7070;53.586;9.692;2022-07-18T10:30:28;0.30;;;0.30;;
13991;SDS011;7070;53.586;9.692;2022-07-18T10:32:57;0.30;;;0.30;;
13991;SDS011;7070;53.586;9.692;2022-07-18T10:38:24;0.30;;;0.30;;
13991;SDS011;7070;53.586;9.692;2022-07-18T10:41:02;0.30;;;0.30;;
13991;SDS011;7070;53.586;9.692;2022-07-18T10:43:38;0.20;;;0.20;;
13991;SDS011;7070;53.586;9.692;2022-07-18T10:46:07;0.20;;;0.20;;
13991;SDS011;7070;53.586;9.692;2022-07-18T10:48:51;0.30;;;0.30;;
13991;SDS011;7070;53.586;9.692;2022-07-18T10:51:19;0.30;;;0.30;;
13991;SDS011;7070;53.586;9.692;2022-07-18T10:53:55;0.30;;;0.30;;
13991;SDS011;7070;53.586;9.692;2022-07-18T10:59:34;0.30;;;0.30;;
13991;SDS011;7070;53.586;9.692;2022-07-18T11:02:03;0.30;;;0.30;;
13991;SDS011;7070;53.586;9.692;2022-07-18T11:04:33;0.30;;;0.30;;
13991;SDS011;7070;53.586;9.692;2022-07-18T11:07:03;0.22;;;0.22;;
13991;SDS011;7070;53.586;9.692;2022-07-18T11:09:34;0.20;;;0.20;;
13991;SDS011;7070;53.586;9.692;2022-07-18T11:15:06;0.30;;;0.30;;
13991;SDS011;7070;53.586;9.692;2022-07-18T11:17:53;0.30;;;0.30;;
13991;SDS011;7070;53.586;9.692;2022-07-18T11:20:28;0.20;;;0.20;;
13991;SDS011;7070;53.586;9.692;2022-07-18T11:23:01;0.20;;;0.20;;
13991;SDS011;7070;53.586;9.692;2022-07-18T11:25:29;0.20;;;0.20;;
13991;SDS011;7070;53.586;9.692;2022-07-18T11:27:58;0.30;;;0.30;;
13991;SDS011;7070;53.586;9.692;2022-07-18T11:30:25;0.30;;;0.30;;
13991;SDS011;7070;53.586;9.692;2022-07-18T11:32:52;0.20;;;0.20;;
13991;SDS011;7070;53.586;9.692;2022-07-18T11:35:22;0.30;;;0.30;;
13991;SDS011;7070;53.586;9.692;2022-07-18T11:37:51;0.20;;;0.20;;
13991;SDS011;7070;53.586;9.692;2022-07-18T11:40:20;0.20;;;0.20;;
13991;SDS011;7070;53.586;9.692;2022-07-18T11:42:47;0.20;;;0.20;;
13991;SDS011;7070;53.586;9.692;2022-07-18T11:45:16;0.15;;;0.15;;
13991;SDS011;7070;53.586;9.692;2022-07-18T11:47:46;0.20;;;0.20;;
13991;SDS011;7070;53.586;9.692;2022-07-18T11:50:15;0.30;;;0.30;;
13991;SDS011;7070;53.586;9.692;2022-07-18T11:52:42;0.20;;;0.20;;
13991;SDS011;7070;53.586;9.692;2022-07-18T11:55:10;0.20;;;0.20;;
13991;SDS011;7070;53.586;9.692;2022-07-18T11:57:38;0.20;;;0.20;;
13991;SDS011;7070;53.586;9.692;2022-07-18T12:00:17;0.20;;;0.20;;
13991;SDS011;7070;53.586;9.692;2022-07-18T12:05:36;0.20;;;0.20;;
13991;SDS011;7070;53.586;9.692;2022-07-18T12:11:03;0.20;;;0.20;;
13991;SDS011;7070;53.586;9.692;2022-07-18T12:13:43;0.20;;;0.20;;
13991;SDS011;7070;53.586;9.692;2022-07-18T12:16:26;0.20;;;0.20;;
13991;SDS011;7070;53.586;9.692;2022-07-18T12:19:01;0.28;;;0.28;;
13991;SDS011;7070;53.586;9.692;2022-07-18T12:21:43;0.20;;;0.20;;
13991;SDS011;7070;53.586;9.692;2022-07-18T12:24:25;0.20;;;0.20;;
13991;SDS011;7070;53.586;9.692;2022-07-18T12:27:06;0.20;;;0.20;;
13991;SDS011;7070;53.586;9.692;2022-07-18T12:32:39;0.20;;;0.20;;
13991;SDS011;7070;53.586;9.692;2022-07-18T12:35:11;0.20;;;0.20;;
13991;SDS011;7070;53.586;9.692;2022-07-18T12:37:40;0.20;;;0.20;;
13991;SDS011;7070;53.586;9.692;2022-07-18T12:40:08;0.20;;;0.20;;
13991;SDS011;7070;53.586;9.692;2022-07-18T12:42:38;0.20;;;0.20;;
13991;SDS011;7070;53.586;9.692;2022-07-18T12:45:07;0.20;;;0.20;;
13991;SDS011;7070;53.586;9.692;2022-07-18T12:47:35;0.28;;;0.28;;
13991;SDS011;7070;53.586;9.692;2022-07-18T12:50:05;0.20;;;0.20;;
13991;SDS011;7070;53.586;9.692;2022-07-18T12:52:32;0.30;;;0.30;;
13991;SDS011;7070;53.586;9.692;2022-07-18T12:55:00;0.20;;;0.20;;
13991;SDS011;7070;53.586;9.692;2022-07-18T12:57:27;0.20;;;0.20;;
13991;SDS011;7070;53.586;9.692;2022-07-18T12:59:54;0.20;;;0.20;;
13991;SDS011;7070;53.586;9.692;2022-07-18T13:02:21;0.20;;;0.20;;
13991;SDS011;7070;53.586;9.692;2022-07-18T13:04:47;0.30;;;0.30;;
13991;SDS011;7070;53.586;9.692;2022-07-18T13:07:16;0.20;;;0.20;;
13991;SDS011;7070;53.586;9.692;2022-07-18T13:09:42;0.20;;;0.20;;
13991;SDS011;7070;53.586;9.692;2022-07-18T13:12:09;0.20;;;0.20;;
13991;SDS011;7070;53.586;9.692;2022-07-18T13:14:36;0.20;;;0.20;;
13991;SDS011;7070;53.586;9.692;2022-07-18T13:17:03;0.20;;;0.20;;
13991;SDS011;7070;53.586;9.692;2022-07-18T13:19:30;0.20;;;0.20;;
13991;SDS011;7070;53.586;9.692;2022-07-18T13:21:57;0.28;;;0.28;;
13991;SDS011;7070;53.586;9.692;2022-07-18T13:24:26;0.20;;;0.20;;
13991;SDS011;7070;53.586;9.692;2022-07-18T13:26:53;0.20;;;0.20;;
13991;SDS011;7070;53.586;9.692;2022-07-18T13:29:20;0.20;;;0.20;;
13991;SDS011;7070;53.586;9.692;2022-07-18T13:31:48;0.20;;;0.20;;
13991;SDS011;7070;53.586;9.692;2022-07-18T13:34:16;0.20;;;0.20;;
13991;SDS011;7070;53.586;9.692;2022-07-18T13:36:45;0.20;;;0.20;;
13991;SDS011;7070;53.586;9.692;2022-07-18T13:39:13;0.20;;;0.20;;
13991;SDS011;7070;53.586;9.692;2022-07-18T13:41:41;0.20;;;0.20;;
13991;SDS011;7070;53.586;9.692;2022-07-18T13:44:08;0.20;;;0.20;;
13991;SDS011;7070;53.586;9.692;2022-07-18T13:46:35;0.28;;;0.28;;
13991;SDS011;7070;53.586;9.692;2022-07-18T13:49:02;0.20;;;0.20;;
13991;SDS011;7070;53.586;9.692;2022-07-18T13:51:29;0.20;;;0.20;;
13991;SDS011;7070;53.586;9.692;2022-07-18T13:53:55;0.20;;;0.20;;
13991;SDS011;7070;53.586;9.692;2022-07-18T13:56:22;0.20;;;0.20;;
13991;SDS011;7070;53.586;9.692;2022-07-18T13:58:50;0.20;;;0.20;;
13991;SDS011;7070;53.586;9.692;2022-07-18T14:01:17;0.20;;;0.20;;
13991;SDS011;7070;53.586;9.692;2022-07-18T14:03:44;0.13;;;0.13;;
13991;SDS011;7070;53.586;9.692;2022-07-18T14:06:11;0.20;;;0.20;;
13991;SDS011;7070;53.586;9.692;2022-07-18T14:08:38;0.20;;;0.20;;
13991;SDS011;7070;53.586;9.692;2022-07-18T14:11:05;0.20;;;0.20;;
13991;SDS011;7070;53.586;9.692;2022-07-18T14:13:32;0.20;;;0.20;;
13991;SDS011;7070;53.586;9.692;2022-07-18T14:16:00;0.20;;;0.20;;
13991;SDS011;7070;53.586;9.692;2022-07-18T14:18:27;0.20;;;0.20;;
13991;SDS011;7070;53.586;9.692;2022-07-18T14:20:54;0.20;;;0.20;;
13991;SDS011;7070;53.586;9.692;2022-07-18T14:23:21;0.20;;;0.20;;
13991;SDS011;7070;53.586;9.692;2022-07-18T14:25:48;0.17;;;0.17;;
13991;SDS011;7070;53.586;9.692;2022-07-18T14:28:15;0.20;;;0.20;;
13991;SDS011;7070;53.586;9.692;2022-07-18T14:30:41;0.20;;;0.20;;
13991;SDS011;7070;53.586;9.692;2022-07-18T14:33:10;0.20;;;0.20;;
13991;SDS011;7070;53.586;9.692;2022-07-18T14:35:37;0.20;;;0.20;;
13991;SDS011;7070;53.586;9.692;2022-07-18T14:38:04;0.20;;;0.20;;
13991;SDS011;7070;53.586;9.692;2022-07-18T14:40:31;0.20;;;0.20;;
13991;SDS011;7070;53.586;9.692;2022-07-18T14:42:58;0.20;;;0.20;;
13991;SDS011;7070;53.586;9.692;2022-07-18T14:45:25;0.20;;;0.20;;
13991;SDS011;7070;53.586;9.692;2022-07-18T14:47:52;0.20;;;0.20;;
13991;SDS011;7070;53.586;9.692;2022-07-18T14:50:22;0.20;;;0.20;;
13991;SDS011;7070;53.586;9.692;2022-07-18T14:52:49;0.20;;;0.20;;
13991;SDS011;7070;53.586;9.692;2022-07-18T14:55:16;0.20;;;0.20;;
13991;SDS011;7070;53.586;9.692;2022-07-18T14:57:46;0.20;;;0.20;;
13991;SDS011;7070;53.586;9.692;2022-07-18T15:00:14;0.20;;;0.20;;
13991;SDS011;7070;53.586;9.692;2022-07-18T15:02:44;0.20;;;0.20;;
13991;SDS011;7070;53.586;9.692;2022-07-18T15:05:11;0.20;;;0.20;;
13991;SDS011;7070;53.586;9.692;2022-07-18T15:07:39;0.20;;;0.20;;
13991;SDS011;7070;53.586;9.692;2022-07-18T15:10:07;0.20;;;0.20;;
13991;SDS011;7070;53.586;9.692;2022-07-18T15:12:35;0.20;;;0.20;;
13991;SDS011;7070;53.586;9.692;2022-07-18T15:15:02;0.20;;;0.20;;
13991;SDS011;7070;53.586;9.692;2022-07-18T15:17:32;0.20;;;0.20;;
13991;SDS011;7070;53.586;9.692;2022-07-18T15:19:59;0.22;;;0.22;;
13991;SDS011;7070;53.586;9.692;2022-07-18T15:22:26;0.30;;;0.30;;
13991;SDS011;7070;53.586;9.692;2022-07-18T15:24:55;0.20;;;0.20;;
13991;SDS011;7070;53.586;9.692;2022-07-18T15:27:22;0.20;;;0.20;;